createdAt,value
2023-04-21T00:00:16.988Z,14.00
2023-04-21T00:02:46.873Z,9.50
2023-04-21T00:05:15.868Z,14.50
2023-04-21T00:07:43.738Z,12.50
2023-04-21T00:10:12.830Z,14.00
2023-04-21T00:12:41.505Z,12.00
2023-04-21T00:15:10.299Z,13.00
2023-04-21T00:17:39.465Z,11.67
2023-04-21T00:20:10.851Z,12.00
2023-04-21T00:22:38.754Z,12.00
2023-04-21T00:25:08.264Z,10.00
2023-04-21T00:27:37.030Z,10.33
2023-04-21T00:30:07.155Z,12.00
2023-04-21T00:32:35.077Z,11.00
2023-04-21T00:35:02.968Z,13.00
2023-04-21T00:37:31.612Z,10.67
2023-04-21T00:40:00.322Z,12.00
2023-04-21T00:42:29.081Z,12.00
2023-04-21T00:44:57.739Z,11.67
2023-04-21T00:47:25.739Z,11.00
2023-04-21T00:49:53.622Z,11.00
2023-04-21T00:52:21.614Z,13.00
2023-04-21T00:54:49.585Z,13.00
2023-04-21T00:57:17.952Z,13.00
2023-04-21T00:59:45.804Z,12.00
2023-04-21T01:02:17.321Z,13.00
2023-04-21T01:04:45.946Z,13.00
2023-04-21T01:07:14.798Z,13.00
2023-04-21T01:09:43.523Z,12.33
2023-04-21T01:12:13.498Z,13.00
2023-04-21T01:14:42.233Z,11.50
2023-04-21T01:17:10.804Z,12.50
2023-04-21T01:19:43.932Z,12.00
2023-04-21T01:22:13.762Z,13.00
2023-04-21T01:24:49.752Z,11.67
2023-04-21T01:27:21.131Z,11.67
2023-04-21T01:29:52.916Z,14.50
2023-04-21T01:32:26.863Z,13.50
2023-04-21T01:34:58.297Z,14.33
2023-04-21T01:37:33.494Z,13.00
2023-04-21T01:40:07.617Z,14.50
2023-04-21T01:42:43.694Z,13.33
2023-04-21T01:45:12.479Z,14.00
2023-04-21T01:47:40.579Z,14.00
2023-04-21T01:50:10.267Z,14.00
2023-04-21T01:52:39.000Z,13.00
2023-04-21T01:55:07.692Z,13.50
2023-04-21T01:57:36.430Z,14.50
2023-04-21T02:00:06.354Z,13.00
2023-04-21T02:02:35.127Z,12.00
2023-04-21T02:05:04.244Z,12.33
2023-04-21T02:07:33.001Z,11.33
2023-04-21T02:10:01.979Z,11.67
2023-04-21T02:12:30.699Z,13.00
2023-04-21T02:14:58.601Z,12.00
2023-04-21T02:17:26.458Z,13.00
2023-04-21T02:19:55.155Z,10.67
2023-04-21T02:22:23.362Z,12.00
2023-04-21T02:24:51.821Z,12.00
2023-04-21T02:27:19.599Z,14.00
2023-04-21T02:29:48.223Z,12.33
2023-04-21T02:32:25.649Z,13.00
2023-04-21T02:34:55.121Z,12.00
2023-04-21T02:37:24.314Z,11.33
2023-04-21T02:39:52.281Z,12.00
2023-04-21T02:42:20.248Z,13.50
2023-04-21T02:44:49.091Z,13.00
2023-04-21T02:47:17.837Z,13.00
2023-04-21T02:49:46.612Z,11.33
2023-04-21T02:52:15.313Z,11.33
2023-04-21T02:54:43.963Z,11.67
2023-04-21T02:57:11.769Z,11.00
2023-04-21T02:59:39.573Z,12.00
2023-04-21T03:02:07.415Z,12.00
2023-04-21T03:04:36.493Z,11.00
2023-04-21T03:07:04.380Z,12.00
2023-04-21T03:09:32.288Z,10.00
2023-04-21T03:12:00.108Z,12.00
2023-04-21T03:14:27.949Z,11.00
2023-04-21T03:16:56.741Z,12.00
2023-04-21T03:19:24.693Z,11.00
2023-04-21T03:21:53.331Z,11.00
2023-04-21T03:24:21.707Z,13.00
2023-04-21T03:26:51.068Z,13.33
2023-04-21T03:29:20.054Z,11.33
2023-04-21T03:31:49.004Z,11.00
2023-04-21T03:34:16.986Z,9.00
2023-04-21T03:36:44.771Z,11.00
2023-04-21T03:39:19.860Z,12.00
2023-04-21T03:41:48.768Z,12.00
2023-04-21T03:44:16.616Z,12.00
2023-04-21T03:46:45.331Z,11.00
2023-04-21T03:49:13.210Z,12.00
2023-04-21T03:51:41.954Z,12.00
2023-04-21T03:54:09.734Z,12.00
2023-04-21T03:56:37.730Z,13.00
2023-04-21T03:59:06.415Z,11.50
2023-04-21T04:01:37.232Z,13.00
2023-04-21T04:04:05.482Z,13.00
2023-04-21T04:06:33.568Z,15.00
2023-04-21T04:09:04.755Z,13.00
2023-04-21T04:11:33.313Z,11.00
2023-04-21T04:14:01.167Z,11.00
2023-04-21T04:16:30.129Z,10.00
2023-04-21T04:18:58.852Z,10.00
2023-04-21T04:21:28.502Z,12.67
2023-04-21T04:23:57.089Z,11.00
2023-04-21T04:26:25.901Z,9.00
2023-04-21T04:28:56.699Z,12.67
2023-04-21T04:31:25.707Z,14.00
2023-04-21T04:33:55.788Z,22.00
2023-04-21T04:36:28.748Z,14.50
2023-04-21T04:38:58.671Z,12.00
2023-04-21T04:41:31.060Z,38.00
2023-04-21T04:44:00.982Z,26.00
2023-04-21T04:46:29.907Z,30.00
2023-04-21T04:48:58.614Z,21.00
2023-04-21T04:51:27.695Z,11.33
2023-04-21T04:53:56.389Z,21.67
2023-04-21T04:56:25.933Z,30.00
2023-04-21T04:58:54.647Z,16.00
2023-04-21T05:01:24.587Z,14.50
2023-04-21T05:03:54.215Z,23.00
2023-04-21T05:06:24.233Z,28.00
2023-04-21T05:08:52.096Z,12.00
2023-04-21T05:11:20.885Z,14.50
2023-04-21T05:13:49.591Z,17.50
2023-04-21T05:16:19.189Z,32.00
2023-04-21T05:18:51.154Z,17.00
2023-04-21T05:21:27.963Z,13.50
2023-04-21T05:23:59.442Z,9.00
2023-04-21T05:26:30.149Z,13.00
2023-04-21T05:28:59.271Z,12.00
2023-04-21T05:31:28.940Z,8.00
2023-04-21T05:33:58.435Z,20.00
2023-04-21T05:36:28.187Z,9.00
2023-04-21T05:38:55.977Z,10.00
2023-04-21T05:41:24.871Z,13.00
2023-04-21T05:43:52.718Z,13.00
2023-04-21T05:46:21.752Z,9.67
2023-04-21T05:48:50.416Z,8.00
2023-04-21T05:51:19.071Z,10.00
2023-04-21T05:53:47.829Z,10.00
2023-04-21T05:56:16.445Z,10.67
2023-04-21T05:58:44.280Z,9.50
2023-04-21T06:01:13.386Z,7.67
2023-04-21T06:03:41.304Z,7.00
2023-04-21T06:06:11.711Z,8.50
2023-04-21T06:08:40.398Z,9.33
2023-04-21T06:11:08.341Z,8.00
2023-04-21T06:13:38.230Z,0.00
2023-04-21T06:16:06.992Z,6.00
2023-04-21T06:18:36.726Z,8.60
2023-04-21T06:21:05.824Z,9.33
2023-04-21T06:23:33.725Z,7.50
2023-04-21T06:26:07.152Z,5.00
2023-04-21T06:28:37.093Z,7.00
2023-04-21T06:31:08.680Z,9.00
2023-04-21T06:33:37.092Z,10.50
2023-04-21T06:36:06.671Z,6.00
2023-04-21T06:38:36.352Z,4.00
2023-04-21T06:41:05.877Z,12.00
2023-04-21T06:43:34.525Z,17.00
2023-04-21T06:46:04.179Z,6.80
2023-04-21T06:48:32.296Z,10.00
2023-04-21T06:51:02.857Z,8.00
2023-04-21T06:53:31.838Z,9.00
2023-04-21T06:56:00.440Z,7.00
2023-04-21T06:58:28.936Z,5.67
2023-04-21T07:00:58.588Z,5.20
2023-04-21T07:03:27.247Z,13.00
2023-04-21T07:05:55.826Z,9.00
2023-04-21T07:08:25.886Z,3.00
2023-04-21T07:10:54.328Z,5.00
2023-04-21T07:13:22.773Z,5.00
2023-04-21T07:15:51.472Z,6.00
2023-04-21T07:18:19.949Z,5.00
2023-04-21T07:20:49.550Z,4.00
2023-04-21T07:23:19.575Z,4.00
2023-04-21T07:25:49.268Z,6.80
2023-04-21T07:28:18.865Z,5.40
2023-04-21T07:30:47.413Z,5.33
2023-04-21T07:33:16.428Z,2.67
2023-04-21T07:35:46.006Z,6.00
2023-04-21T07:38:15.648Z,4.80
2023-04-21T07:40:43.519Z,1.00
2023-04-21T07:43:11.438Z,7.00
2023-04-21T07:45:40.164Z,7.00
2023-04-21T07:48:09.739Z,4.40
2023-04-21T07:50:37.772Z,5.00
2023-04-21T07:53:06.562Z,5.33
2023-04-21T07:55:37.433Z,4.00
2023-04-21T07:58:06.988Z,5.00
2023-04-21T08:00:36.856Z,5.60
2023-04-21T08:03:04.753Z,3.00
2023-04-21T08:05:35.857Z,3.00
2023-04-21T08:08:06.029Z,5.00
2023-04-21T08:10:34.380Z,6.00
2023-04-21T08:13:06.618Z,6.80
2023-04-21T08:15:35.536Z,6.00
2023-04-21T08:18:03.331Z,5.00
2023-04-21T08:20:32.951Z,4.20
2023-04-21T08:23:01.539Z,5.33
2023-04-21T08:25:29.601Z,6.00
2023-04-21T08:28:02.043Z,5.80
2023-04-21T08:30:30.222Z,6.00
2023-04-21T08:32:59.896Z,2.80
2023-04-21T08:35:27.668Z,4.50
2023-04-21T08:37:57.677Z,3.80
2023-04-21T08:40:36.508Z,8.00
2023-04-21T08:43:10.069Z,6.00
2023-04-21T08:45:37.956Z,6.00
2023-04-21T08:48:07.247Z,4.00
2023-04-21T08:50:36.446Z,6.00
2023-04-21T08:53:04.272Z,8.00
2023-04-21T08:55:33.854Z,6.50
2023-04-21T08:58:07.100Z,5.40
2023-04-21T09:00:41.660Z,7.67
2023-04-21T09:03:23.187Z,11.00
2023-04-21T09:06:07.014Z,10.00
2023-04-21T09:08:43.130Z,10.00
2023-04-21T09:11:15.943Z,11.00
2023-04-21T09:13:45.573Z,7.60
2023-04-21T09:16:22.395Z,13.00
2023-04-21T09:18:51.902Z,3.67
2023-04-21T09:21:21.258Z,10.00
2023-04-21T09:23:52.664Z,12.00
2023-04-21T09:26:23.470Z,15.33
2023-04-21T09:28:53.840Z,11.00
2023-04-21T09:31:29.435Z,3.00
2023-04-21T09:34:00.779Z,13.00
2023-04-21T09:36:32.351Z,11.00
2023-04-21T09:41:35.507Z,13.67
2023-04-21T09:44:06.890Z,12.33
2023-04-21T09:46:37.875Z,8.00
2023-04-21T09:49:07.194Z,10.33
2023-04-21T09:54:33.025Z,7.50
2023-04-21T09:57:04.855Z,9.00
2023-04-21T09:59:47.618Z,4.00
2023-04-21T10:02:20.652Z,12.00
2023-04-21T10:04:49.507Z,5.00
2023-04-21T10:07:18.389Z,12.00
2023-04-21T10:09:56.880Z,13.00
2023-04-21T10:12:27.701Z,4.50
2023-04-21T10:14:58.522Z,3.00
2023-04-21T10:17:27.861Z,11.50
2023-04-21T10:19:59.673Z,11.67
2023-04-21T10:22:33.781Z,11.00
2023-04-21T10:25:04.971Z,11.00
2023-04-21T10:27:42.192Z,14.00
2023-04-21T10:30:23.261Z,10.00
2023-04-21T10:33:05.965Z,9.33
2023-04-21T10:36:03.020Z,11.00
2023-04-21T10:38:43.997Z,10.33
2023-04-21T10:41:30.861Z,4.40
2023-04-21T10:44:12.344Z,6.00
2023-04-21T10:47:01.243Z,11.00
2023-04-21T10:49:31.599Z,10.00
2023-04-21T10:52:00.518Z,12.00
2023-04-21T10:54:50.229Z,13.00
2023-04-21T10:57:20.864Z,12.00
2023-04-21T10:59:50.004Z,11.33
2023-04-21T11:02:20.127Z,11.33
2023-04-21T11:04:54.530Z,12.67
2023-04-21T11:07:25.464Z,7.67
2023-04-21T11:10:07.947Z,10.33
2023-04-21T11:12:41.874Z,4.40
2023-04-21T11:15:14.648Z,9.00
2023-04-21T11:17:47.443Z,12.00
2023-04-21T11:20:15.275Z,12.00
2023-04-21T11:22:43.782Z,11.00
2023-04-21T11:25:19.117Z,6.00
2023-04-21T11:27:56.787Z,10.67
2023-04-21T11:30:36.248Z,11.67
2023-04-21T11:33:05.077Z,11.33
2023-04-21T11:35:33.744Z,11.00
2023-04-21T11:38:08.852Z,11.00
2023-04-21T11:40:48.844Z,11.00
2023-04-21T11:43:17.769Z,10.00
2023-04-21T11:45:51.166Z,10.67
2023-04-21T11:48:20.068Z,13.00
2023-04-21T11:50:50.999Z,10.00
2023-04-21T11:53:20.294Z,12.00
2023-04-21T11:55:48.969Z,11.33
2023-04-21T11:58:18.175Z,11.00
2023-04-21T12:00:46.996Z,9.67
2023-04-21T12:03:16.480Z,11.67
2023-04-21T12:05:44.397Z,8.00
2023-04-21T12:08:16.725Z,6.00
2023-04-21T12:10:47.355Z,11.67
2023-04-21T12:13:23.929Z,11.00
2023-04-21T12:15:52.591Z,10.00
2023-04-21T12:18:21.598Z,9.00
2023-04-21T12:20:54.989Z,9.00
2023-04-21T12:23:23.690Z,10.67
2023-04-21T12:25:53.342Z,6.40
2023-04-21T12:28:21.309Z,4.50
2023-04-21T12:30:50.002Z,11.00
2023-04-21T12:33:17.959Z,12.00
2023-04-21T12:35:46.676Z,14.33
2023-04-21T12:38:14.552Z,10.50
2023-04-21T12:40:42.429Z,13.00
2023-04-21T12:43:11.083Z,13.00
2023-04-21T12:45:39.777Z,13.00
2023-04-21T12:48:08.492Z,11.00
2023-04-21T12:50:37.145Z,12.00
2023-04-21T12:53:05.822Z,12.50
2023-04-21T12:55:36.906Z,11.00
2023-04-21T12:58:05.552Z,13.00
2023-04-21T13:00:36.055Z,12.50
2023-04-21T13:03:05.069Z,12.50
2023-04-21T13:05:34.208Z,13.00
2023-04-21T13:08:02.876Z,9.67
2023-04-21T13:10:31.631Z,12.33
2023-04-21T13:13:00.295Z,13.50
2023-04-21T13:15:28.081Z,11.50
2023-04-21T13:17:55.900Z,13.00
2023-04-21T13:20:24.862Z,14.00
2023-04-21T13:22:53.602Z,18.00
2023-04-21T13:25:22.349Z,13.50
2023-04-21T13:27:52.874Z,11.67
2023-04-21T13:30:22.215Z,12.00
2023-04-21T13:32:51.031Z,12.33
2023-04-21T13:35:20.054Z,14.00
2023-04-21T13:37:50.372Z,32.67
2023-04-21T13:40:19.484Z,14.00
2023-04-21T13:42:48.183Z,14.00
2023-04-21T13:45:17.193Z,8.67
2023-04-21T13:47:46.759Z,10.00
2023-04-21T13:50:15.554Z,13.00
2023-04-21T13:52:44.679Z,9.00
2023-04-21T13:55:13.420Z,12.00
2023-04-21T13:57:42.435Z,14.00
2023-04-21T14:00:12.317Z,12.00
2023-04-21T14:02:42.181Z,12.00
2023-04-21T14:05:10.397Z,11.00
2023-04-21T14:07:39.292Z,14.00
2023-04-21T14:10:08.870Z,13.00
2023-04-21T14:12:37.552Z,11.50
2023-04-21T14:15:09.648Z,8.00
2023-04-21T14:17:38.369Z,13.00
2023-04-21T14:20:09.693Z,10.00
2023-04-21T14:22:39.816Z,12.00
2023-04-21T14:25:08.305Z,11.00
2023-04-21T14:27:37.172Z,13.50
2023-04-21T14:30:07.683Z,14.00
2023-04-21T14:32:36.384Z,13.33
2023-04-21T14:35:05.684Z,4.00
2023-04-21T14:37:35.250Z,17.00
2023-04-21T14:40:04.381Z,13.00
2023-04-21T14:42:33.346Z,12.00
2023-04-21T14:45:01.219Z,11.00
2023-04-21T14:47:29.821Z,12.00
2023-04-21T14:49:58.520Z,12.00
2023-04-21T14:52:27.672Z,12.50
2023-04-21T14:54:56.384Z,13.00
2023-04-21T14:57:24.991Z,12.67
2023-04-21T14:59:54.394Z,13.00
2023-04-21T15:02:23.256Z,13.00
2023-04-21T15:04:52.161Z,11.33
2023-04-21T15:07:24.316Z,13.00
2023-04-21T15:09:55.647Z,10.67
2023-04-21T15:12:24.372Z,11.67
2023-04-21T15:14:53.427Z,13.00
2023-04-21T15:17:22.030Z,11.00
2023-04-21T15:19:50.855Z,12.00
2023-04-21T15:22:19.682Z,11.33
2023-04-21T15:24:48.691Z,11.00
2023-04-21T15:27:17.766Z,11.00
2023-04-21T15:29:45.545Z,12.00
2023-04-21T15:32:15.186Z,14.00
2023-04-21T15:34:43.813Z,11.33
2023-04-21T15:37:12.578Z,15.00
2023-04-21T15:39:41.623Z,16.00
2023-04-21T15:42:10.381Z,12.00
2023-04-21T15:44:39.858Z,12.00
2023-04-21T15:47:08.590Z,13.67
2023-04-21T15:49:37.636Z,15.50
2023-04-21T15:52:07.292Z,13.50
2023-04-21T15:54:36.623Z,12.00
2023-04-21T15:57:05.905Z,14.00
2023-04-21T15:59:33.718Z,12.50
2023-04-21T16:02:02.747Z,12.50
2023-04-21T16:04:30.904Z,13.00
2023-04-21T16:06:59.681Z,14.00
2023-04-21T16:09:28.371Z,13.00
2023-04-21T16:11:57.611Z,14.00
2023-04-21T16:14:26.274Z,13.67
2023-04-21T16:16:55.031Z,13.00
2023-04-21T16:19:23.966Z,14.00
2023-04-21T16:21:53.472Z,14.00
2023-04-21T16:24:22.251Z,14.67
2023-04-21T16:26:51.023Z,18.67
2023-04-21T16:29:20.536Z,16.00
2023-04-21T16:31:49.278Z,13.67
2023-04-21T16:34:18.096Z,14.33
2023-04-21T16:36:47.474Z,16.00
2023-04-21T16:39:15.310Z,16.50
2023-04-21T16:41:44.005Z,14.00
2023-04-21T16:44:12.694Z,15.00
2023-04-21T16:46:41.607Z,15.00
2023-04-21T16:49:12.456Z,13.67
2023-04-21T16:51:44.781Z,14.33
2023-04-21T16:54:14.101Z,14.00
2023-04-21T16:56:42.865Z,14.67
2023-04-21T16:59:12.444Z,18.67
2023-04-21T17:01:41.296Z,17.00
2023-04-21T17:04:14.154Z,17.33
2023-04-21T17:06:43.358Z,18.67
2023-04-21T17:09:12.089Z,21.33
2023-04-21T17:11:41.637Z,27.00
2023-04-21T17:14:11.098Z,26.00
2023-04-21T17:16:40.968Z,27.67
2023-04-21T17:19:10.451Z,25.00
2023-04-21T17:21:39.121Z,24.67
2023-04-21T17:24:08.684Z,25.33
2023-04-21T17:26:37.720Z,28.33
2023-04-21T17:29:08.942Z,26.00
2023-04-21T17:31:38.713Z,26.00
2023-04-21T17:34:08.299Z,26.00
2023-04-21T17:36:37.072Z,25.67
2023-04-21T17:39:05.949Z,26.67
2023-04-21T17:41:35.537Z,30.00
2023-04-21T17:44:05.329Z,27.33
2023-04-21T17:46:34.218Z,27.33
2023-04-21T17:49:03.748Z,27.33
2023-04-21T17:51:32.854Z,28.00
2023-04-21T17:54:01.554Z,27.00
2023-04-21T17:56:31.247Z,29.00
2023-04-21T17:59:01.280Z,30.00
2023-04-21T18:01:31.141Z,29.33
2023-04-21T18:04:01.598Z,26.33
2023-04-21T18:06:31.992Z,30.00
2023-04-21T18:09:01.652Z,30.33
2023-04-21T18:11:31.470Z,35.33
2023-04-21T18:14:02.366Z,41.75
2023-04-21T18:16:30.302Z,55.50
2023-04-21T18:18:58.193Z,48.00
2023-04-21T18:21:28.467Z,53.00
2023-04-21T18:23:58.072Z,50.50
2023-04-21T18:26:29.127Z,52.50
2023-04-21T18:28:58.449Z,61.50
2023-04-21T18:31:29.054Z,49.33
2023-04-21T18:34:00.511Z,53.25
2023-04-21T18:36:32.480Z,54.50
2023-04-21T18:39:01.258Z,54.00
2023-04-21T18:41:30.841Z,39.00
2023-04-21T18:44:00.435Z,36.00
2023-04-21T18:46:37.900Z,35.00
2023-04-21T18:49:07.628Z,32.00
2023-04-21T18:51:37.238Z,34.00
2023-04-21T18:54:12.626Z,34.50
2023-04-21T18:56:41.501Z,34.33
2023-04-21T18:59:10.359Z,36.00
2023-04-21T19:01:40.566Z,34.67
2023-04-21T19:04:10.827Z,37.00
2023-04-21T19:06:39.885Z,36.67
2023-04-21T19:09:08.631Z,39.00
2023-04-21T19:11:38.354Z,40.25
2023-04-21T19:14:07.142Z,27.50
2023-04-21T19:16:36.898Z,31.00
2023-04-21T19:19:06.138Z,33.33
2023-04-21T19:21:35.802Z,31.00
2023-04-21T19:24:05.926Z,28.00
2023-04-21T19:26:35.832Z,29.00
2023-04-21T19:29:05.123Z,33.00
2023-04-21T19:31:33.944Z,33.33
2023-04-21T19:34:02.737Z,33.00
2023-04-21T19:36:31.693Z,33.00
2023-04-21T19:39:00.580Z,31.50
2023-04-21T19:41:30.151Z,31.00
2023-04-21T19:43:58.922Z,32.67
2023-04-21T19:46:28.596Z,32.00
2023-04-21T19:48:57.387Z,31.33
2023-04-21T19:51:28.076Z,33.00
2023-04-21T19:54:10.163Z,34.00
2023-04-21T19:56:41.142Z,39.00
2023-04-21T19:59:10.760Z,34.00
2023-04-21T20:01:39.922Z,35.00
2023-04-21T20:04:11.885Z,34.25
2023-04-21T20:06:41.844Z,34.00
2023-04-21T20:09:10.693Z,33.00
2023-04-21T20:11:39.463Z,33.00
2023-04-21T20:14:08.291Z,33.00
2023-04-21T20:16:38.303Z,33.00
2023-04-21T20:19:07.015Z,33.00
2023-04-21T20:21:36.628Z,33.00
2023-04-21T20:24:05.740Z,33.00
2023-04-21T20:26:35.645Z,34.00
2023-04-21T20:29:05.084Z,34.67
2023-04-21T20:31:34.818Z,32.00
2023-04-21T20:34:03.642Z,32.00
2023-04-21T20:36:33.749Z,33.00
2023-04-21T20:39:06.615Z,34.33
2023-04-21T20:41:35.386Z,35.67
2023-04-21T20:44:05.655Z,66.67
2023-04-21T20:46:35.353Z,32.00
2023-04-21T20:49:05.270Z,32.00
2023-04-21T20:51:35.126Z,32.00
2023-04-21T20:54:03.964Z,32.00
2023-04-21T20:56:33.587Z,31.00
2023-04-21T20:59:03.197Z,30.67
2023-04-21T21:01:37.009Z,32.67
2023-04-21T21:04:06.077Z,34.00
2023-04-21T21:06:35.213Z,33.67
2023-04-21T21:09:05.181Z,33.00
2023-04-21T21:11:33.940Z,33.67
2023-04-21T21:14:03.593Z,33.67
2023-04-21T21:16:33.265Z,33.00
2023-04-21T21:19:02.894Z,31.00
2023-04-21T21:21:31.838Z,32.67
2023-04-21T21:24:01.483Z,33.00
2023-04-21T21:26:30.829Z,33.67
2023-04-21T21:29:00.459Z,33.67
2023-04-21T21:31:30.145Z,31.33
2023-04-21T21:33:59.028Z,34.00
2023-04-21T21:36:28.628Z,33.00
2023-04-21T21:38:58.246Z,30.00
2023-04-21T21:41:27.935Z,32.00
2023-04-21T21:43:57.463Z,30.25
2023-04-21T21:46:27.125Z,29.67
2023-04-21T21:48:56.758Z,31.67
2023-04-21T21:51:28.114Z,31.33
2023-04-21T21:53:57.733Z,32.67
2023-04-21T21:56:27.716Z,29.00
2023-04-21T21:58:57.327Z,28.33
2023-04-21T22:01:26.229Z,28.50
2023-04-21T22:03:56.714Z,29.00
2023-04-21T22:06:28.717Z,30.00
2023-04-21T22:08:57.485Z,29.00
2023-04-21T22:11:26.290Z,29.00
2023-04-21T22:13:55.101Z,29.00
2023-04-21T22:16:24.692Z,29.33
2023-04-21T22:18:54.965Z,30.33
2023-04-21T22:21:28.510Z,30.00
2023-04-21T22:23:57.369Z,30.00
2023-04-21T22:26:26.864Z,23.67
2023-04-21T22:28:56.482Z,29.00
2023-04-21T22:31:26.118Z,25.00
2023-04-21T22:33:54.864Z,26.00
2023-04-21T22:36:24.881Z,25.33
2023-04-21T22:38:54.440Z,27.00
2023-04-21T22:41:23.288Z,27.67
2023-04-21T22:43:52.079Z,25.00
2023-04-21T22:46:21.160Z,27.50
2023-04-21T22:48:51.529Z,28.33
2023-04-21T22:51:21.712Z,27.00
2023-04-21T22:53:51.227Z,29.33
2023-04-21T22:56:19.996Z,27.00
2023-04-21T22:58:48.864Z,24.50
2023-04-21T23:01:17.713Z,27.50
2023-04-21T23:03:46.610Z,27.50
2023-04-21T23:06:15.456Z,28.00
2023-04-21T23:08:43.298Z,28.00
2023-04-21T23:11:12.133Z,28.00
2023-04-21T23:13:42.172Z,28.67
2023-04-21T23:16:10.998Z,28.50
2023-04-21T23:18:40.773Z,29.33
2023-04-21T23:21:09.533Z,29.00
2023-04-21T23:23:38.177Z,28.00
2023-04-21T23:26:06.984Z,29.50
2023-04-21T23:28:36.542Z,30.33
2023-04-21T23:31:06.327Z,31.67
2023-04-21T23:33:35.302Z,33.67
2023-04-21T23:36:05.093Z,34.00
2023-04-21T23:38:34.620Z,32.33
2023-04-21T23:41:04.206Z,24.00
2023-04-21T23:43:34.746Z,29.33
2023-04-21T23:46:04.792Z,28.00
2023-04-21T23:48:35.079Z,29.00
2023-04-21T23:51:04.074Z,27.00
2023-04-21T23:53:33.085Z,28.00
2023-04-21T23:56:02.678Z,28.33
2023-04-21T23:58:31.452Z,27.00
